Portada
METAR-TAF:

METAR-TAF

Aeroports :

Jizan, Aràbia Saudita

latitud: 16-54N, longitud: 042-35E, altitud: 6 m

Observació

L'informe es va fer fa 1 hora i 7 minuts, a les 17:00 UTC
Vent 6 kt del Nord-Oest
Temperatura 30°C
Humitat 75%
Pressió 1010 hPa
Visibilitat 10 km o més
sense núvols per sota de 1500 mi sense presència de cumulonimbus.

METAR: OEGN 031700Z 32006KT CAVOK 30/25 Q1010 NOSIG

Hora: 21:07 (18:07 UTC)

Pronòstic

L'informe es va fer fa 7 hores i 7 minuts, a les 11:00 UTC
Pronòstic vàlid del 03 a les 12 UTC al 04 a les 18 UTC
Vent 14 kt del Oest
Visibilitat 10 km o més
Núvols disperses a una alçada de 3000 ft
Evolucionant progressivament
l' 03 a les 20 UTC al 03 a les 22 UTC
Vent 8 kt del Nord
Evolucionant progressivament
l' 04 a les 06 UTC al 04 a les 08 UTC
Vent 14 kt del Oest

TAF: OEGN 031100Z 0312/0418 27014KT 9999 SCT030 BECMG 0320/0322 36008KT BECMG 0406/0408 27014KT

Observacions i pronòstics meteorològics de més de 4000 aeroports (METAR i TAF).

Les estacions disponibles són els punts grocs i vermells al mapa.

Posi el ratolí al punt desitjat per veure el nom de l'estació.

Feu clic per veure les observacions i els pronòstics meteorològics.

Per canviar el mapa: feu clic els botons verds amb una creu de color negre per apropar; al botó verd amb un guió per allunyar la imatge; o en les fletxes verdes per a mapes adjacents.


METAR-TAF: